createdAt,value
2022-12-22T00:00:32.998Z,84.58
2022-12-22T00:03:18.732Z,83.77
2022-12-22T00:06:05.726Z,83.59
2022-12-22T00:08:51.269Z,83.90
2022-12-22T00:11:36.418Z,83.49
2022-12-22T00:14:21.606Z,83.91
2022-12-22T00:17:07.241Z,83.92
2022-12-22T00:19:52.396Z,83.76
2022-12-22T00:22:41.011Z,83.41
2022-12-22T00:25:28.271Z,82.98
2022-12-22T00:28:13.470Z,82.26
2022-12-22T00:30:58.742Z,81.47
2022-12-22T00:33:43.947Z,81.35
2022-12-22T00:36:31.014Z,81.17
2022-12-22T00:39:17.697Z,81.59
2022-12-22T00:42:03.088Z,83.11
2022-12-22T00:44:48.619Z,83.56
2022-12-22T00:47:42.379Z,82.20
2022-12-22T00:50:28.029Z,81.98
2022-12-22T00:53:13.587Z,81.23
2022-12-22T00:56:00.116Z,81.11
2022-12-22T00:58:45.240Z,81.44
2022-12-22T01:01:30.956Z,81.86
2022-12-22T01:04:16.462Z,80.66
2022-12-22T01:07:01.781Z,80.92
2022-12-22T01:09:47.261Z,80.67
2022-12-22T01:12:38.172Z,80.68
2022-12-22T01:15:29.038Z,80.26
2022-12-22T01:18:14.169Z,81.02
2022-12-22T01:20:59.674Z,81.09
2022-12-22T01:23:45.073Z,81.39
2022-12-22T01:26:30.696Z,80.85
2022-12-22T01:29:17.238Z,80.34
2022-12-22T01:32:02.450Z,80.80
2022-12-22T01:34:47.612Z,81.13
2022-12-22T01:37:32.875Z,81.04
2022-12-22T01:40:18.157Z,80.80
2022-12-22T01:43:03.679Z,80.49
2022-12-22T01:45:52.473Z,80.57
2022-12-22T01:48:39.047Z,80.19
2022-12-22T01:51:27.851Z,80.56
2022-12-22T01:54:13.867Z,80.34
2022-12-22T01:56:59.449Z,80.55
2022-12-22T01:59:44.691Z,80.02
2022-12-22T02:02:31.675Z,79.57
2022-12-22T02:05:18.522Z,79.59
2022-12-22T02:08:12.587Z,79.82
2022-12-22T02:11:10.602Z,80.46
2022-12-22T02:14:01.618Z,80.12
2022-12-22T02:16:51.884Z,81.54
2022-12-22T02:19:50.969Z,82.07
2022-12-22T02:22:41.335Z,81.94
2022-12-22T02:25:29.922Z,82.19
2022-12-22T02:28:17.610Z,82.26
2022-12-22T02:31:03.523Z,81.51
2022-12-22T02:33:48.887Z,81.46
2022-12-22T02:36:42.260Z,82.46
2022-12-22T02:39:34.033Z,83.67
2022-12-22T02:42:27.417Z,84.63
2022-12-22T02:45:21.638Z,84.92
2022-12-22T02:48:09.830Z,86.32
2022-12-22T02:50:58.224Z,87.75
2022-12-22T02:53:44.432Z,87.91
2022-12-22T02:56:30.082Z,88.72
2022-12-22T02:59:15.520Z,88.02
2022-12-22T03:02:04.369Z,87.23
2022-12-22T03:04:49.667Z,86.42
2022-12-22T03:07:35.281Z,86.45
2022-12-22T03:10:20.281Z,85.39
2022-12-22T03:13:05.482Z,84.36
2022-12-22T03:15:51.168Z,84.16
2022-12-22T03:18:38.128Z,84.41
2022-12-22T03:21:23.780Z,84.48
2022-12-22T03:24:09.318Z,83.92
2022-12-22T03:26:37.042Z,82.78
2022-12-22T03:29:04.770Z,84.17
2022-12-22T03:31:32.694Z,85.02
2022-12-22T03:34:01.907Z,84.98
2022-12-22T03:36:29.737Z,84.58
2022-12-22T03:38:57.459Z,84.82
2022-12-22T03:41:42.863Z,84.60
2022-12-22T03:44:28.049Z,84.07
2022-12-22T03:46:55.927Z,83.25
2022-12-22T03:49:26.199Z,82.60
2022-12-22T03:51:54.420Z,82.73
2022-12-22T03:54:23.650Z,83.80
2022-12-22T03:56:51.959Z,83.67
2022-12-22T03:59:20.358Z,83.93
2022-12-22T04:01:50.309Z,82.96
2022-12-22T04:04:20.041Z,82.85
2022-12-22T04:06:49.823Z,83.21
2022-12-22T04:09:17.644Z,84.15
2022-12-22T04:12:02.882Z,83.89
2022-12-22T04:14:34.253Z,84.04
2022-12-22T04:17:02.900Z,84.24
2022-12-22T04:19:31.765Z,84.30
2022-12-22T04:22:01.143Z,83.51
2022-12-22T04:24:29.347Z,84.21
2022-12-22T04:26:57.243Z,83.42
2022-12-22T04:29:25.015Z,83.29
2022-12-22T04:31:52.831Z,83.13
2022-12-22T04:34:20.671Z,82.99
2022-12-22T04:36:48.467Z,83.42
2022-12-22T04:39:17.578Z,84.14
2022-12-22T04:41:45.340Z,83.92
2022-12-22T04:44:13.080Z,83.69
2022-12-22T04:46:40.802Z,84.55
2022-12-22T04:49:08.718Z,85.01
2022-12-22T04:51:36.440Z,85.92
2022-12-22T04:54:04.520Z,87.10
2022-12-22T04:56:33.614Z,87.85
2022-12-22T04:59:01.332Z,86.35
2022-12-22T05:01:29.360Z,84.83
2022-12-22T05:03:57.226Z,84.88
2022-12-22T05:06:24.999Z,83.95
2022-12-22T05:08:52.761Z,83.59
2022-12-22T05:11:20.579Z,82.48
2022-12-22T05:13:49.724Z,82.66
2022-12-22T05:16:17.906Z,82.46
2022-12-22T05:18:46.447Z,81.76
2022-12-22T05:21:15.949Z,82.45
2022-12-22T05:23:45.149Z,82.08
2022-12-22T05:26:14.654Z,82.52
2022-12-22T05:28:42.857Z,83.97
2022-12-22T05:31:16.622Z,85.34
2022-12-22T05:33:44.545Z,84.68
2022-12-22T05:36:12.325Z,84.34
2022-12-22T05:38:40.321Z,83.89
2022-12-22T05:41:08.621Z,83.76
2022-12-22T05:43:36.749Z,84.27
2022-12-22T05:46:04.928Z,85.85
2022-12-22T05:48:38.607Z,84.97
2022-12-22T05:51:07.844Z,84.17
2022-12-22T05:53:35.683Z,84.42
2022-12-22T05:56:03.649Z,84.07
2022-12-22T05:58:31.542Z,85.13
2022-12-22T06:00:59.937Z,63.79
2022-12-22T06:03:28.536Z,65.39
2022-12-22T06:05:58.633Z,74.32
2022-12-22T06:08:27.263Z,78.34
2022-12-22T06:10:55.854Z,82.05
2022-12-22T06:13:23.878Z,83.78
2022-12-22T06:15:51.730Z,83.78
2022-12-22T06:18:19.633Z,83.67
2022-12-22T06:20:47.776Z,83.96
2022-12-22T06:23:16.888Z,84.95
2022-12-22T06:25:44.673Z,85.14
2022-12-22T06:28:12.546Z,87.06
2022-12-22T06:30:40.487Z,88.76
2022-12-22T06:33:08.413Z,90.49
2022-12-22T06:35:37.781Z,100.00
2022-12-22T06:38:05.635Z,61.73
2022-12-22T06:40:34.805Z,46.46
2022-12-22T06:43:10.993Z,45.26
2022-12-22T06:45:40.428Z,50.99
2022-12-22T06:48:09.161Z,45.30
2022-12-22T06:50:37.035Z,45.24
2022-12-22T06:53:05.189Z,45.22
2022-12-22T06:55:34.349Z,44.83
2022-12-22T06:58:02.205Z,44.62
2022-12-22T07:00:30.184Z,46.11
2022-12-22T07:02:58.241Z,45.30
2022-12-22T07:05:26.540Z,43.47
2022-12-22T07:07:54.651Z,42.19
2022-12-22T07:10:42.631Z,43.78
2022-12-22T07:13:20.442Z,43.94
2022-12-22T07:15:53.871Z,44.89
2022-12-22T07:18:25.172Z,43.81
2022-12-22T07:20:52.913Z,43.41
2022-12-22T07:23:20.987Z,43.97
2022-12-22T07:25:48.805Z,43.23
2022-12-22T07:28:21.015Z,43.51
2022-12-22T07:30:49.387Z,43.60
2022-12-22T07:33:17.480Z,43.26
2022-12-22T07:35:45.521Z,44.27
2022-12-22T07:38:13.589Z,43.12
2022-12-22T07:40:44.279Z,43.63
2022-12-22T07:43:12.645Z,43.47
2022-12-22T07:45:41.819Z,43.12
2022-12-22T07:48:24.460Z,43.02
2022-12-22T07:50:52.256Z,42.51
2022-12-22T07:53:20.117Z,42.97
2022-12-22T07:55:47.860Z,43.25
2022-12-22T07:58:15.613Z,43.48
2022-12-22T08:00:44.839Z,43.23
2022-12-22T08:03:12.996Z,44.08
2022-12-22T08:05:41.043Z,44.12
2022-12-22T08:08:08.806Z,44.88
2022-12-22T08:10:36.683Z,44.85
2022-12-22T08:13:04.635Z,46.37
2022-12-22T08:15:32.636Z,44.49
2022-12-22T08:18:01.804Z,43.76
2022-12-22T08:20:29.630Z,43.93
2022-12-22T08:22:57.968Z,44.69
2022-12-22T08:25:25.851Z,45.13
2022-12-22T08:27:54.829Z,44.32
2022-12-22T08:30:22.720Z,44.54
2022-12-22T08:32:51.994Z,43.93
2022-12-22T08:35:21.458Z,43.92
2022-12-22T08:37:49.764Z,44.81
2022-12-22T08:40:21.337Z,43.55
2022-12-22T08:42:49.794Z,43.88
2022-12-22T08:45:17.777Z,44.02
2022-12-22T08:47:45.644Z,44.72
2022-12-22T08:50:13.959Z,43.80
2022-12-22T08:52:43.229Z,44.15
2022-12-22T08:55:11.477Z,43.95
2022-12-22T08:57:39.305Z,44.89
2022-12-22T09:00:08.640Z,45.34
2022-12-22T09:02:36.893Z,45.25
2022-12-22T09:05:05.303Z,46.01
2022-12-22T09:07:33.123Z,44.71
2022-12-22T09:10:02.436Z,44.36
2022-12-22T09:12:30.439Z,42.35
2022-12-22T09:14:58.536Z,43.18
2022-12-22T09:17:26.350Z,42.50
2022-12-22T09:19:54.194Z,42.21
2022-12-22T09:22:28.195Z,43.63
2022-12-22T09:24:56.854Z,42.20
2022-12-22T09:27:25.958Z,43.32
2022-12-22T09:29:53.824Z,42.66
2022-12-22T09:32:21.776Z,43.22
2022-12-22T09:34:49.907Z,42.80
2022-12-22T09:37:17.707Z,42.72
2022-12-22T09:39:45.800Z,40.95
2022-12-22T09:42:15.979Z,41.90
2022-12-22T09:44:47.129Z,42.51
2022-12-22T09:47:20.234Z,43.77
2022-12-22T09:49:48.127Z,42.06
2022-12-22T09:52:25.246Z,41.57
2022-12-22T09:54:53.087Z,40.79
2022-12-22T09:57:20.999Z,39.14
2022-12-22T09:59:50.333Z,39.10
2022-12-22T10:02:25.835Z,40.83
2022-12-22T10:05:12.046Z,42.09
2022-12-22T10:07:42.629Z,42.53
2022-12-22T10:10:24.822Z,42.70
2022-12-22T10:12:53.054Z,43.34
2022-12-22T10:15:22.389Z,42.03
2022-12-22T10:17:51.848Z,41.74
2022-12-22T10:20:26.442Z,41.61
2022-12-22T10:22:56.037Z,42.39
2022-12-22T10:25:52.560Z,44.69
2022-12-22T10:28:22.889Z,44.12
2022-12-22T10:31:11.600Z,42.86
2022-12-22T10:33:44.312Z,42.68
2022-12-22T10:36:14.596Z,41.54
2022-12-22T10:38:56.134Z,41.77
2022-12-22T10:41:26.641Z,42.41
2022-12-22T10:43:55.893Z,41.67
2022-12-22T10:46:34.357Z,42.30
2022-12-22T10:49:14.689Z,41.93
2022-12-22T10:51:44.154Z,39.91
2022-12-22T10:54:28.807Z,41.41
2022-12-22T10:57:08.555Z,44.83
2022-12-22T10:59:49.055Z,43.83
2022-12-22T11:02:41.918Z,43.00
2022-12-22T11:05:11.632Z,43.92
2022-12-22T11:07:40.826Z,43.75
2022-12-22T11:10:18.246Z,44.35
2022-12-22T11:12:57.174Z,43.95
2022-12-22T11:15:29.717Z,44.68
2022-12-22T11:18:03.880Z,44.67
2022-12-22T11:20:47.831Z,43.91
2022-12-22T11:23:21.027Z,42.78
2022-12-22T11:25:56.707Z,42.63
2022-12-22T11:28:40.947Z,45.13
2022-12-22T11:31:16.982Z,44.10
2022-12-22T11:33:59.531Z,43.05
2022-12-22T11:36:34.388Z,43.79
2022-12-22T11:39:06.182Z,41.91
2022-12-22T11:41:56.671Z,41.38
2022-12-22T11:44:36.089Z,41.83
2022-12-22T11:47:08.521Z,40.40
2022-12-22T11:49:46.787Z,39.35
2022-12-22T11:52:28.208Z,40.09
2022-12-22T11:55:08.458Z,36.65
2022-12-22T11:57:41.053Z,33.72
2022-12-22T12:00:11.833Z,33.17
2022-12-22T12:03:27.800Z,32.14
2022-12-22T12:06:25.707Z,36.26
2022-12-22T12:09:02.958Z,36.17
2022-12-22T12:11:36.145Z,37.56
2022-12-22T12:14:11.848Z,36.55
2022-12-22T12:16:41.582Z,32.89
2022-12-22T12:19:47.515Z,32.07
2022-12-22T12:22:24.354Z,35.20
2022-12-22T12:25:01.014Z,37.88
2022-12-22T12:27:45.032Z,37.07
2022-12-22T12:33:09.654Z,35.32
2022-12-22T12:35:47.374Z,31.03
2022-12-22T12:38:56.785Z,27.95
2022-12-22T12:41:15.817Z,29.67
2022-12-22T12:43:44.259Z,32.55
2022-12-22T12:46:47.208Z,36.15
2022-12-22T12:49:52.796Z,33.45
2022-12-22T12:52:59.310Z,34.14
2022-12-22T12:55:33.732Z,35.26
2022-12-22T12:58:03.254Z,31.86
2022-12-22T13:00:49.825Z,34.89
2022-12-22T13:06:55.487Z,32.43
2022-12-22T13:09:50.352Z,30.43
2022-12-22T13:12:38.715Z,31.55
2022-12-22T13:15:29.006Z,30.44
2022-12-22T13:17:57.240Z,30.87
2022-12-22T13:20:27.461Z,26.91
2022-12-22T13:22:57.138Z,24.29
2022-12-22T13:25:28.767Z,22.84
2022-12-22T13:27:58.702Z,24.44
2022-12-22T13:30:29.773Z,29.23
2022-12-22T13:32:58.176Z,26.32
2022-12-22T13:35:33.919Z,26.79
2022-12-22T13:38:02.879Z,25.90
2022-12-22T13:40:31.984Z,26.84
2022-12-22T13:43:04.537Z,27.12
2022-12-22T13:45:35.868Z,25.01
2022-12-22T13:48:09.649Z,29.40
2022-12-22T13:50:39.677Z,33.31
2022-12-22T13:53:09.879Z,33.54
2022-12-22T13:55:38.798Z,32.28
2022-12-22T13:58:14.433Z,31.91
2022-12-22T14:00:42.349Z,32.09
2022-12-22T14:03:41.597Z,34.09
2022-12-22T14:06:19.999Z,39.66
2022-12-22T14:08:47.725Z,35.50
2022-12-22T14:11:15.469Z,34.14
2022-12-22T14:13:44.779Z,34.94
2022-12-22T14:16:14.973Z,34.07
2022-12-22T14:18:43.411Z,32.66
2022-12-22T14:21:11.843Z,31.63
2022-12-22T14:23:41.665Z,29.85
2022-12-22T14:26:14.087Z,30.10
2022-12-22T14:28:50.290Z,30.76
2022-12-22T14:31:19.182Z,28.46
2022-12-22T14:33:53.173Z,29.32
2022-12-22T14:36:23.679Z,31.52
2022-12-22T14:38:52.833Z,31.69
2022-12-22T14:41:44.081Z,33.88
2022-12-22T14:44:15.919Z,34.00
2022-12-22T14:46:44.465Z,33.22
2022-12-22T14:49:15.136Z,46.41
2022-12-22T14:51:43.448Z,46.78
2022-12-22T14:54:21.005Z,39.01
2022-12-22T14:56:49.703Z,36.01
2022-12-22T14:59:26.154Z,36.74
2022-12-22T15:02:01.691Z,39.82
2022-12-22T15:04:30.375Z,53.17
2022-12-22T15:07:45.815Z,41.08
2022-12-22T15:10:15.338Z,39.04
2022-12-22T15:12:44.059Z,37.62
2022-12-22T15:15:18.138Z,43.84
2022-12-22T15:17:47.611Z,53.28
2022-12-22T15:20:19.156Z,55.43
2022-12-22T15:22:47.005Z,54.67
2022-12-22T15:25:16.349Z,55.86
2022-12-22T15:27:44.264Z,55.96
2022-12-22T15:30:14.241Z,54.09
2022-12-22T15:32:43.846Z,55.91
2022-12-22T15:35:23.398Z,56.21
2022-12-22T15:37:51.180Z,56.94
2022-12-22T15:40:20.829Z,56.20
2022-12-22T15:42:48.826Z,57.17
2022-12-22T15:45:16.997Z,58.34
2022-12-22T15:47:49.682Z,43.14
2022-12-22T15:50:20.202Z,40.17
2022-12-22T15:52:50.235Z,39.46
2022-12-22T15:55:18.578Z,38.78
2022-12-22T15:57:46.435Z,39.22
2022-12-22T16:00:15.248Z,43.26
2022-12-22T16:02:43.252Z,46.20
2022-12-22T16:05:12.948Z,53.88
2022-12-22T16:07:42.015Z,57.57
2022-12-22T16:10:19.819Z,42.53
2022-12-22T16:12:53.874Z,41.29
2022-12-22T16:15:22.271Z,42.02
2022-12-22T16:17:52.043Z,49.59
2022-12-22T16:20:21.329Z,55.72
2022-12-22T16:22:50.366Z,58.31
2022-12-22T16:25:20.146Z,59.05
2022-12-22T16:27:49.508Z,59.35
2022-12-22T16:30:19.970Z,59.26
2022-12-22T16:32:48.082Z,61.04
2022-12-22T16:35:17.951Z,61.60
2022-12-22T16:37:48.715Z,59.62
2022-12-22T16:40:18.052Z,60.95
2022-12-22T16:45:37.355Z,58.87
2022-12-22T16:48:07.682Z,58.45
2022-12-22T16:50:35.461Z,58.06
2022-12-22T16:53:06.099Z,57.60
2022-12-22T16:55:35.859Z,58.21
2022-12-22T16:58:12.946Z,50.45
2022-12-22T17:00:43.774Z,47.74
2022-12-22T17:03:14.451Z,56.27
2022-12-22T17:05:45.281Z,60.34
2022-12-22T17:08:20.029Z,49.79
2022-12-22T17:10:47.876Z,48.32
2022-12-22T17:13:15.765Z,48.73
2022-12-22T17:15:43.951Z,58.03
2022-12-22T17:18:17.074Z,47.01
2022-12-22T17:20:45.343Z,48.23
2022-12-22T17:23:28.163Z,47.82
2022-12-22T17:25:55.932Z,49.93
2022-12-22T17:28:23.718Z,52.10
2022-12-22T17:30:51.543Z,50.84
2022-12-22T17:33:19.681Z,49.26
2022-12-22T17:35:48.307Z,47.38
2022-12-22T17:38:18.630Z,48.63
2022-12-22T17:40:48.433Z,50.97
2022-12-22T17:43:17.352Z,48.78
2022-12-22T17:45:46.672Z,48.38
2022-12-22T17:48:15.113Z,49.29
2022-12-22T17:50:43.995Z,54.00
2022-12-22T17:53:20.687Z,60.11
2022-12-22T17:58:36.890Z,69.53
2022-12-22T18:01:04.653Z,66.50
2022-12-22T18:03:33.863Z,63.22
2022-12-22T18:06:01.757Z,61.32
2022-12-22T18:08:30.907Z,63.20
2022-12-22T18:10:58.697Z,57.07
2022-12-22T18:13:26.719Z,57.75
2022-12-22T18:15:55.677Z,56.59
2022-12-22T18:18:23.523Z,56.82
2022-12-22T18:21:06.058Z,58.99
2022-12-22T18:23:38.187Z,57.24
2022-12-22T18:26:08.289Z,61.11
2022-12-22T18:28:36.279Z,64.82
2022-12-22T18:31:04.134Z,67.64
2022-12-22T18:33:31.951Z,66.39
2022-12-22T18:36:00.277Z,65.41
2022-12-22T18:38:31.999Z,65.63
2022-12-22T18:41:01.395Z,65.85
2022-12-22T18:43:29.090Z,67.49
2022-12-22T18:45:56.838Z,69.81
2022-12-22T18:48:24.877Z,69.61
2022-12-22T18:50:52.725Z,69.64
2022-12-22T18:53:27.854Z,70.67
2022-12-22T18:55:56.309Z,69.19
2022-12-22T18:58:26.003Z,69.35
2022-12-22T19:00:55.150Z,70.84
2022-12-22T19:03:24.853Z,71.92
2022-12-22T19:05:52.957Z,71.01
2022-12-22T19:08:22.519Z,71.20
2022-12-22T19:10:52.663Z,69.98
2022-12-22T19:13:26.427Z,69.13
2022-12-22T19:15:54.456Z,69.84
2022-12-22T19:18:27.002Z,64.53
2022-12-22T19:20:55.537Z,62.81
2022-12-22T19:23:25.439Z,58.12
2022-12-22T19:25:56.046Z,62.86
2022-12-22T19:28:28.613Z,63.73
2022-12-22T19:30:57.124Z,64.52
2022-12-22T19:33:27.862Z,64.93
2022-12-22T19:35:55.647Z,67.58
2022-12-22T19:38:25.471Z,69.50
2022-12-22T19:40:55.591Z,69.78
2022-12-22T19:43:23.481Z,69.10
2022-12-22T19:45:54.013Z,69.33
2022-12-22T19:48:23.682Z,69.93
2022-12-22T19:50:52.748Z,63.43
2022-12-22T19:53:20.984Z,67.79
2022-12-22T19:55:52.728Z,69.20
2022-12-22T19:58:23.223Z,70.00
2022-12-22T20:00:52.533Z,68.00
2022-12-22T20:03:22.625Z,61.57
2022-12-22T20:05:50.756Z,61.74
2022-12-22T20:08:18.979Z,68.04
2022-12-22T20:10:50.557Z,66.67
2022-12-22T20:13:22.208Z,66.55
2022-12-22T20:15:50.397Z,71.47
2022-12-22T20:18:21.799Z,72.41
2022-12-22T20:20:57.629Z,72.87
2022-12-22T20:23:26.011Z,74.37
2022-12-22T20:25:56.174Z,74.78
2022-12-22T20:28:25.800Z,74.95
2022-12-22T20:30:54.741Z,75.27
2022-12-22T20:33:25.093Z,75.44
2022-12-22T20:35:54.256Z,73.22
2022-12-22T20:38:25.481Z,73.22
2022-12-22T20:40:54.281Z,73.70
2022-12-22T20:43:24.895Z,76.24
2022-12-22T20:45:54.411Z,77.35
2022-12-22T20:48:30.529Z,77.64
2022-12-22T20:50:58.640Z,73.43
2022-12-22T20:53:26.863Z,61.43
2022-12-22T20:55:54.693Z,59.12
2022-12-22T20:58:25.127Z,57.44
2022-12-22T21:00:54.135Z,57.83
2022-12-22T21:03:22.133Z,58.99
2022-12-22T21:05:51.766Z,59.93
2022-12-22T21:08:21.892Z,58.71
2022-12-22T21:10:51.209Z,57.16
2022-12-22T21:13:19.399Z,57.98
2022-12-22T21:15:50.230Z,57.11
2022-12-22T21:18:20.117Z,57.48
2022-12-22T21:20:48.412Z,55.95
2022-12-22T21:23:17.777Z,57.01
2022-12-22T21:25:47.029Z,56.41
2022-12-22T21:28:24.758Z,55.82
2022-12-22T21:30:52.690Z,57.01
2022-12-22T21:33:20.548Z,57.46
2022-12-22T21:35:48.607Z,55.69
2022-12-22T21:38:19.350Z,56.88
2022-12-22T21:40:47.727Z,56.65
2022-12-22T21:43:16.226Z,56.99
2022-12-22T21:45:44.902Z,55.79
2022-12-22T21:48:13.850Z,56.71
2022-12-22T21:50:41.720Z,57.53
2022-12-22T21:53:09.517Z,57.12
2022-12-22T21:55:39.509Z,57.23
2022-12-22T21:58:09.040Z,57.54
2022-12-22T22:00:37.125Z,63.83
2022-12-22T22:03:05.181Z,57.09
2022-12-22T22:05:34.916Z,60.39
2022-12-22T22:08:03.410Z,66.06
2022-12-22T22:10:33.295Z,71.37
2022-12-22T22:13:03.278Z,73.11
2022-12-22T22:15:32.171Z,73.19
2022-12-22T22:18:06.558Z,73.92
2022-12-22T22:20:35.026Z,74.29
2022-12-22T22:23:02.945Z,73.06
2022-12-22T22:25:30.843Z,72.47
2022-12-22T22:27:59.934Z,72.70
2022-12-22T22:30:29.127Z,73.19
2022-12-22T22:32:57.522Z,74.49
2022-12-22T22:35:26.829Z,73.39
2022-12-22T22:37:55.988Z,72.59
2022-12-22T22:40:24.622Z,71.71
2022-12-22T22:42:52.505Z,62.71
2022-12-22T22:45:23.679Z,56.03
2022-12-22T22:47:53.823Z,54.10
2022-12-22T22:50:22.777Z,54.01
2022-12-22T22:52:50.846Z,55.40
2022-12-22T22:55:18.648Z,54.60
2022-12-22T22:57:46.548Z,54.26
2022-12-22T23:00:17.309Z,53.07
2022-12-22T23:02:46.029Z,52.85
2022-12-22T23:05:20.687Z,52.36
2022-12-22T23:07:50.747Z,55.00
2022-12-22T23:10:18.733Z,53.35
2022-12-22T23:12:46.711Z,53.36
2022-12-22T23:15:14.587Z,53.58
2022-12-22T23:17:42.529Z,51.71
2022-12-22T23:20:10.727Z,52.05
2022-12-22T23:22:39.934Z,52.00
2022-12-22T23:25:09.219Z,51.14
2022-12-22T23:27:37.057Z,51.38
2022-12-22T23:30:05.422Z,51.00
2022-12-22T23:32:33.200Z,51.25
2022-12-22T23:35:01.024Z,51.88
2022-12-22T23:37:28.842Z,51.76
2022-12-22T23:40:10.809Z,51.97
2022-12-22T23:42:45.695Z,51.67
2022-12-22T23:45:13.547Z,52.77
2022-12-22T23:47:41.869Z,52.59
2022-12-22T23:50:10.146Z,52.16
2022-12-22T23:52:37.912Z,52.54
2022-12-22T23:55:08.159Z,52.71
2022-12-22T23:57:36.013Z,51.92
